Time;durP1;ratioP1;P1;durP2;ratioP2;P2;SDS_P1;SDS_P2;PMS_P1;PMS_P2;Temp;Humidity;BMP_temperature;BMP_pressure;BME280_temperature;BME280_humidity;BME280_pressure;Samples;Min_cycle;Max_cycle;Signal;HPM_P1;HPM_P2
2023/10/25 00:02:17;;;;;;;24.30;14.43;;;8.90;86.50;;;;;;5028028;28;20053;-64
2023/10/25 00:04:43;;;;;;;26.40;14.63;;;8.90;86.40;;;;;;5028723;28;20055;-64
2023/10/25 00:07:08;;;;;;;22.43;13.23;;;8.90;86.30;;;;;;5029666;28;20050;-64
2023/10/25 00:09:34;;;;;;;24.47;14.07;;;8.80;86.40;;;;;;5016389;28;20073;-64
2023/10/25 00:11:59;;;;;;;25.87;13.83;;;8.80;86.30;;;;;;5017145;28;20049;-64
2023/10/25 00:14:26;;;;;;;25.20;13.47;;;8.80;86.30;;;;;;5028965;28;20140;-64
2023/10/25 00:16:52;;;;;;;18.83;12.00;;;8.80;86.30;;;;;;5029043;28;20045;-64
2023/10/25 00:19:18;;;;;;;23.60;13.00;;;8.80;86.30;;;;;;5027785;28;20046;-64
2023/10/25 00:21:43;;;;;;;24.63;11.80;;;8.80;86.30;;;;;;5009838;28;20054;-65
2023/10/25 00:24:09;;;;;;;23.17;11.87;;;8.80;86.30;;;;;;5009390;28;20397;-64
2023/10/25 00:26:35;;;;;;;24.63;12.40;;;8.70;86.20;;;;;;5028430;28;20143;-63
2023/10/25 00:29:00;;;;;;;23.33;12.43;;;8.80;86.10;;;;;;5027166;28;20116;-64
2023/10/25 00:31:26;;;;;;;19.83;11.07;;;8.70;86.10;;;;;;5008986;28;20100;-64
2023/10/25 00:33:52;;;;;;;21.60;11.77;;;8.70;86.10;;;;;;5033711;28;20045;-64
2023/10/25 00:36:18;;;;;;;20.50;11.83;;;8.70;86.10;;;;;;5023479;28;20049;-64
2023/10/25 00:38:43;;;;;;;24.13;12.60;;;8.60;86.00;;;;;;5017154;28;20046;-64
2023/10/25 00:41:09;;;;;;;25.43;12.20;;;8.60;85.90;;;;;;5021214;28;20095;-64
2023/10/25 00:43:35;;;;;;;23.23;11.47;;;8.60;85.90;;;;;;5009618;28;20042;-64
2023/10/25 00:46:22;;;;;;;19.53;11.90;;;8.60;85.90;;;;;;5020981;28;20137;-64
2023/10/25 00:48:49;;;;;;;19.37;11.77;;;8.60;85.90;;;;;;5022905;28;20515;-64
2023/10/25 00:51:18;;;;;;;22.40;11.93;;;8.50;85.90;;;;;;5031431;28;20216;-64
2023/10/25 00:53:49;;;;;;;24.97;12.17;;;8.50;85.90;;;;;;5031349;28;20160;-64
2023/10/25 00:56:16;;;;;;;21.97;11.87;;;8.50;85.90;;;;;;5030052;28;20049;-64
2023/10/25 00:58:48;;;;;;;18.23;11.67;;;8.50;85.90;;;;;;5031006;28;20495;-64
2023/10/25 01:01:15;;;;;;;20.80;11.00;;;8.50;85.90;;;;;;5031212;28;20558;-64
2023/10/25 01:03:41;;;;;;;27.17;11.50;;;8.40;85.90;;;;;;5027003;28;20046;-64
2023/10/25 01:06:07;;;;;;;24.20;11.77;;;8.40;85.90;;;;;;5032394;28;20084;-63
2023/10/25 01:08:33;;;;;;;23.30;11.10;;;8.40;85.80;;;;;;5026583;28;20054;-64
2023/10/25 01:10:59;;;;;;;22.60;11.23;;;8.40;85.80;;;;;;5011898;28;20050;-64
2023/10/25 01:13:24;;;;;;;20.40;11.63;;;8.40;85.90;;;;;;5029918;28;20133;-64
2023/10/25 01:15:50;;;;;;;22.90;11.10;;;8.30;85.80;;;;;;5030914;28;20061;-64
2023/10/25 01:18:16;;;;;;;18.07;11.33;;;8.30;85.80;;;;;;5030066;28;20506;-64
2023/10/25 01:20:43;;;;;;;16.87;10.60;;;8.30;85.90;;;;;;5030864;28;20056;-64
2023/10/25 01:23:09;;;;;;;21.40;11.17;;;8.30;85.90;;;;;;5030647;28;20140;-64
2023/10/25 01:25:35;;;;;;;17.87;10.47;;;8.30;85.80;;;;;;5031384;28;20068;-64
2023/10/25 01:28:00;;;;;;;21.17;10.73;;;8.20;85.80;;;;;;5031072;28;20046;-64
2023/10/25 01:30:26;;;;;;;19.20;10.20;;;8.20;85.70;;;;;;5030555;28;20048;-64
2023/10/25 01:32:53;;;;;;;19.60;10.80;;;8.20;85.70;;;;;;5015338;28;20033;-64
2023/10/25 01:35:19;;;;;;;19.80;10.67;;;8.20;85.70;;;;;;5027255;28;20063;-64
2023/10/25 01:37:45;;;;;;;19.50;11.23;;;8.20;85.80;;;;;;5030586;28;20038;-64
2023/10/25 01:40:11;;;;;;;17.67;10.13;;;8.20;85.80;;;;;;5031224;28;20052;-64
2023/10/25 01:42:37;;;;;;;17.70;10.37;;;8.20;85.80;;;;;;5013530;28;20052;-64
2023/10/25 01:45:03;;;;;;;19.47;10.97;;;8.20;85.90;;;;;;5017653;28;20278;-64
2023/10/25 01:47:29;;;;;;;23.17;10.90;;;8.20;85.80;;;;;;5012181;28;20049;-64
2023/10/25 01:49:55;;;;;;;21.97;10.63;;;8.20;85.80;;;;;;5022919;28;20393;-64
2023/10/25 01:52:21;;;;;;;20.23;10.63;;;8.20;85.70;;;;;;5030957;28;20046;-64
2023/10/25 01:54:50;;;;;;;20.37;10.67;;;8.20;85.70;;;;;;5030474;28;20073;-64
2023/10/25 01:57:16;;;;;;;18.83;9.70;;;8.20;85.70;;;;;;5028347;28;20059;-64
2023/10/25 01:59:42;;;;;;;21.37;10.33;;;8.20;85.70;;;;;;5030983;28;20054;-64
2023/10/25 02:02:10;;;;;;;15.43;9.40;;;8.20;85.70;;;;;;5031278;28;20420;-64
2023/10/25 02:04:35;;;;;;;20.83;9.93;;;8.20;85.70;;;;;;5031042;28;20061;-64
2023/10/25 02:07:02;;;;;;;15.40;9.90;;;8.20;85.50;;;;;;5030763;28;20053;-64
2023/10/25 02:09:31;;;;;;;17.70;10.10;;;8.20;85.50;;;;;;5029793;28;20041;-64
2023/10/25 02:11:57;;;;;;;19.30;9.63;;;8.20;85.50;;;;;;5030252;28;20575;-64
2023/10/25 02:14:23;;;;;;;19.00;10.73;;;8.20;85.50;;;;;;5031639;28;20049;-64
2023/10/25 02:16:49;;;;;;;19.50;9.60;;;8.20;85.40;;;;;;5029471;28;20053;-64
2023/10/25 02:19:19;;;;;;;18.63;10.13;;;8.20;85.50;;;;;;5027746;28;20584;-64
2023/10/25 02:21:45;;;;;;;21.20;9.90;;;8.10;85.40;;;;;;5015717;28;20053;-64
2023/10/25 02:24:12;;;;;;;19.67;10.53;;;8.10;85.40;;;;;;5030145;28;20046;-64
2023/10/25 02:26:37;;;;;;;19.97;10.97;;;8.10;85.40;;;;;;5030101;28;20568;-64
2023/10/25 02:29:03;;;;;;;19.57;11.17;;;8.10;85.30;;;;;;5029644;28;20090;-63
2023/10/25 02:31:29;;;;;;;20.60;10.70;;;8.00;85.30;;;;;;5022540;28;20509;-64
2023/10/25 02:33:55;;;;;;;22.87;12.07;;;8.00;85.30;;;;;;5035024;28;20098;-64
2023/10/25 02:36:20;;;;;;;22.93;12.20;;;8.00;85.40;;;;;;5025598;28;20041;-64
2023/10/25 02:38:49;;;;;;;23.80;12.87;;;8.00;85.40;;;;;;5018173;28;20045;-64
2023/10/25 02:41:15;;;;;;;23.77;13.33;;;8.00;85.50;;;;;;5013306;28;20085;-64
2023/10/25 02:43:42;;;;;;;19.40;12.90;;;8.00;85.50;;;;;;5023080;28;20119;-64
2023/10/25 02:46:09;;;;;;;24.07;13.30;;;7.90;85.60;;;;;;5023926;28;20046;-64
2023/10/25 02:48:37;;;;;;;24.97;13.70;;;7.90;85.70;;;;;;5010976;28;20508;-64
2023/10/25 02:51:04;;;;;;;28.00;13.70;;;7.90;85.70;;;;;;5022047;28;20128;-64
2023/10/25 02:53:30;;;;;;;24.63;14.10;;;7.90;85.70;;;;;;5022794;28;20080;-64
2023/10/25 02:56:03;;;;;;;32.70;15.00;;;7.90;85.80;;;;;;5029053;28;20041;-64
2023/10/25 02:58:30;;;;;;;23.87;13.83;;;7.90;85.80;;;;;;5029607;28;20056;-64
2023/10/25 03:00:58;;;;;;;25.83;13.87;;;7.80;85.80;;;;;;5028823;28;20751;-64
2023/10/25 03:03:27;;;;;;;23.43;14.17;;;7.80;85.90;;;;;;5029033;28;20408;-64
2023/10/25 03:05:53;;;;;;;23.70;14.20;;;7.90;85.80;;;;;;5028383;28;20049;-64
2023/10/25 03:08:19;;;;;;;26.93;14.90;;;7.80;85.80;;;;;;5028784;28;20429;-64
2023/10/25 03:10:45;;;;;;;29.30;15.50;;;7.80;85.80;;;;;;5028046;28;20045;-64
2023/10/25 03:13:11;;;;;;;29.33;15.80;;;7.80;85.70;;;;;;5027633;28;20057;-64
2023/10/25 03:15:37;;;;;;;32.63;15.90;;;7.80;85.80;;;;;;5029573;28;20053;-64
2023/10/25 03:18:03;;;;;;;28.43;15.40;;;7.70;85.80;;;;;;5028554;28;20471;-64
2023/10/25 03:20:29;;;;;;;32.57;16.33;;;7.70;85.80;;;;;;5018288;28;20056;-64
2023/10/25 03:22:55;;;;;;;27.90;16.77;;;7.60;85.80;;;;;;5024866;28;20053;-64
2023/10/25 03:25:21;;;;;;;28.03;15.97;;;7.60;85.80;;;;;;5028167;28;20052;-64
2023/10/25 03:27:46;;;;;;;27.10;16.43;;;7.60;85.90;;;;;;5029264;28;20053;-64
2023/10/25 03:30:12;;;;;;;27.17;17.03;;;7.60;85.90;;;;;;5019206;28;20054;-64
2023/10/25 03:32:38;;;;;;;34.20;18.07;;;7.60;85.90;;;;;;5013517;28;20045;-64
2023/10/25 03:35:05;;;;;;;37.93;17.97;;;7.60;85.90;;;;;;5039266;28;20144;-64
2023/10/25 03:37:31;;;;;;;29.73;17.57;;;7.50;85.90;;;;;;5026105;28;20041;-63
2023/10/25 03:39:56;;;;;;;33.53;18.67;;;7.50;85.90;;;;;;5008123;28;20497;-64
2023/10/25 03:42:22;;;;;;;32.00;18.23;;;7.50;86.00;;;;;;5041869;28;20081;-63
2023/10/25 03:44:48;;;;;;;31.63;18.77;;;7.50;85.90;;;;;;5028758;28;20050;-63
2023/10/25 03:47:13;;;;;;;39.10;19.77;;;7.50;85.90;;;;;;5015549;28;20506;-63
2023/10/25 03:49:39;;;;;;;37.80;20.00;;;7.50;85.90;;;;;;5028975;28;20045;-64
2023/10/25 03:52:05;;;;;;;35.70;20.27;;;7.40;86.00;;;;;;5044117;28;20057;-64
2023/10/25 03:54:30;;;;;;;38.90;21.10;;;7.40;86.00;;;;;;5029065;28;20476;-64
2023/10/25 03:56:56;;;;;;;37.90;21.67;;;7.40;86.00;;;;;;5020950;28;20037;-64
2023/10/25 03:59:22;;;;;;;39.20;21.77;;;7.40;86.10;;;;;;5022702;28;20505;-63
2023/10/25 04:01:48;;;;;;;59.83;31.80;;;7.30;86.10;;;;;;5026134;28;20045;-64
2023/10/25 04:04:13;;;;;;;52.13;28.10;;;7.30;86.10;;;;;;5027696;28;20085;-64
2023/10/25 04:06:39;;;;;;;59.73;31.33;;;7.20;86.10;;;;;;5027535;28;20051;-64
2023/10/25 04:09:05;;;;;;;54.40;29.30;;;7.20;86.10;;;;;;5013170;28;20424;-64
2023/10/25 04:11:31;;;;;;;61.77;32.93;;;7.20;86.30;;;;;;5018903;28;20072;-63
2023/10/25 04:13:57;;;;;;;59.63;38.30;;;7.20;86.30;;;;;;5026778;28;20049;-64
2023/10/25 04:16:23;;;;;;;48.47;30.07;;;7.30;86.30;;;;;;5026936;28;20058;-64
2023/10/25 04:18:48;;;;;;;52.40;32.17;;;7.20;86.40;;;;;;5027007;28;20088;-64
2023/10/25 04:21:14;;;;;;;52.90;32.67;;;7.20;86.30;;;;;;5027099;28;20041;-64
2023/10/25 04:23:40;;;;;;;48.60;29.57;;;7.20;86.30;;;;;;5025588;28;20038;-64
2023/10/25 04:26:07;;;;;;;47.07;29.77;;;7.20;86.50;;;;;;5028272;28;20472;-63
2023/10/25 04:28:34;;;;;;;51.40;29.77;;;7.20;86.60;;;;;;5026084;28;20527;-63
2023/10/25 04:31:00;;;;;;;51.17;30.67;;;7.20;86.60;;;;;;5032138;28;20053;-64
2023/10/25 04:33:26;;;;;;;45.40;28.23;;;7.30;86.60;;;;;;5027339;28;20049;-64
2023/10/25 04:35:52;;;;;;;45.50;29.20;;;7.20;86.60;;;;;;5029689;28;20096;-64
2023/10/25 04:38:18;;;;;;;41.00;25.97;;;7.30;86.60;;;;;;5030813;28;20124;-63
2023/10/25 04:40:44;;;;;;;50.27;30.07;;;7.30;86.60;;;;;;5026039;28;20457;-64
2023/10/25 04:43:09;;;;;;;42.67;27.20;;;7.30;86.70;;;;;;5030831;28;20045;-63
2023/10/25 04:45:36;;;;;;;45.13;31.00;;;7.40;86.80;;;;;;5030904;28;20111;-64
2023/10/25 04:48:02;;;;;;;52.13;29.40;;;7.40;86.70;;;;;;5031541;28;20497;-63
2023/10/25 04:50:32;;;;;;;40.10;27.43;;;7.30;86.60;;;;;;5031011;28;20060;-64
2023/10/25 04:52:59;;;;;;;42.87;26.67;;;7.30;86.60;;;;;;5031504;28;20048;-64
2023/10/25 04:55:26;;;;;;;42.97;26.33;;;7.30;86.70;;;;;;5029604;28;20079;-64
2023/10/25 04:57:52;;;;;;;43.10;26.17;;;7.30;86.50;;;;;;5030371;28;20053;-63
2023/10/25 05:00:18;;;;;;;45.97;27.47;;;7.30;86.60;;;;;;5027813;28;20104;-64
2023/10/25 05:02:44;;;;;;;47.00;31.43;;;7.20;86.50;;;;;;5030144;28;20052;-64
2023/10/25 05:05:09;;;;;;;46.20;25.73;;;7.20;86.60;;;;;;5026812;28;20046;-63
2023/10/25 05:07:37;;;;;;;50.67;30.00;;;7.30;86.60;;;;;;5028307;28;20531;-64
2023/10/25 05:10:07;;;;;;;45.20;29.63;;;7.20;86.60;;;;;;5018462;28;20428;-63
2023/10/25 05:12:41;;;;;;;43.53;25.93;;;7.20;86.60;;;;;;5028897;28;20089;-63
2023/10/25 05:15:13;;;;;;;38.47;25.37;;;7.20;86.60;;;;;;5024324;28;20078;-64
2023/10/25 05:17:41;;;;;;;52.93;30.60;;;7.20;86.50;;;;;;5027270;28;20053;-64
2023/10/25 05:20:07;;;;;;;45.53;27.40;;;7.20;86.60;;;;;;5027800;28;20158;-64
2023/10/25 05:22:35;;;;;;;45.53;26.40;;;7.20;86.50;;;;;;5030565;28;20049;-64
2023/10/25 05:25:04;;;;;;;47.10;28.80;;;7.20;86.50;;;;;;5029312;28;20049;-64
2023/10/25 05:27:32;;;;;;;49.33;27.17;;;7.20;86.50;;;;;;5030285;28;20045;-63
2023/10/25 05:30:04;;;;;;;47.90;26.50;;;7.20;86.50;;;;;;5025871;28;20060;-64
2023/10/25 05:32:35;;;;;;;57.37;32.47;;;7.20;86.40;;;;;;5042461;28;20383;-64
2023/10/25 05:35:03;;;;;;;49.53;25.90;;;7.20;86.40;;;;;;5021648;28;20053;-64
2023/10/25 05:37:30;;;;;;;41.70;24.73;;;7.10;86.40;;;;;;5024824;28;20041;-64
2023/10/25 05:39:56;;;;;;;41.97;23.13;;;7.10;86.40;;;;;;5009381;28;20045;-64
2023/10/25 05:42:26;;;;;;;73.57;34.27;;;7.10;86.40;;;;;;5012074;28;20060;-64
2023/10/25 05:44:56;;;;;;;42.97;23.33;;;7.10;86.50;;;;;;5011794;28;20084;-64
2023/10/25 05:47:26;;;;;;;37.80;21.10;;;7.00;86.40;;;;;;5022977;28;20057;-64
2023/10/25 05:49:52;;;;;;;37.33;20.97;;;7.00;86.50;;;;;;5030033;28;20132;-63
2023/10/25 05:52:19;;;;;;;49.87;27.93;;;7.00;86.40;;;;;;5025969;28;20413;-64
2023/10/25 05:54:45;;;;;;;38.83;22.63;;;7.00;86.50;;;;;;5029167;28;20041;-63
2023/10/25 05:57:12;;;;;;;39.40;21.93;;;7.00;86.40;;;;;;5028353;28;20122;-63
2023/10/25 05:59:38;;;;;;;40.03;21.90;;;7.00;86.40;;;;;;5024885;28;20442;-64
2023/10/25 06:02:10;;;;;;;36.93;22.37;;;6.90;86.30;;;;;;5014642;28;20049;-64
2023/10/25 06:04:38;;;;;;;45.10;21.53;;;6.90;86.40;;;;;;5024389;28;20140;-64
2023/10/25 06:07:05;;;;;;;40.33;21.83;;;6.90;86.30;;;;;;5027376;28;20405;-64
2023/10/25 06:09:31;;;;;;;43.27;21.87;;;6.80;86.20;;;;;;5028210;28;20045;-64
2023/10/25 06:11:57;;;;;;;41.97;22.33;;;6.80;86.30;;;;;;5030882;28;20100;-63
2023/10/25 06:14:23;;;;;;;39.10;20.83;;;6.80;86.30;;;;;;5023428;28;20086;-63
2023/10/25 06:16:49;;;;;;;37.73;21.23;;;6.70;86.30;;;;;;5029339;28;20053;-64
2023/10/25 06:19:15;;;;;;;32.70;19.70;;;6.70;86.40;;;;;;5024730;28;20056;-64
2023/10/25 06:21:40;;;;;;;35.97;20.73;;;6.60;86.40;;;;;;5024559;28;20041;-63
2023/10/25 06:24:07;;;;;;;38.27;20.37;;;6.60;86.40;;;;;;5026161;28;20084;-64
2023/10/25 06:26:33;;;;;;;40.77;19.97;;;6.60;86.40;;;;;;5021015;28;20057;-63
2023/10/25 06:28:58;;;;;;;41.33;21.03;;;6.60;86.40;;;;;;5018333;28;20431;-64
2023/10/25 06:31:24;;;;;;;33.67;21.87;;;6.60;86.40;;;;;;5028749;28;20088;-63
2023/10/25 06:33:50;;;;;;;37.60;20.00;;;6.50;86.50;;;;;;5007728;28;20140;-64
2023/10/25 06:36:16;;;;;;;36.33;20.20;;;6.50;86.40;;;;;;5023569;28;20051;-64
2023/10/25 06:38:42;;;;;;;39.17;20.73;;;6.50;86.50;;;;;;5025504;28;20512;-63
2023/10/25 06:41:19;;;;;;;35.10;20.57;;;6.50;86.50;;;;;;5028126;28;20053;-63
2023/10/25 06:43:46;;;;;;;37.47;20.17;;;6.50;86.60;;;;;;5026009;28;20393;-64
2023/10/25 06:46:12;;;;;;;34.73;19.50;;;6.50;86.70;;;;;;5024180;28;20099;-64
2023/10/25 06:48:41;;;;;;;38.60;21.03;;;6.50;86.80;;;;;;5025326;28;20079;-63
2023/10/25 06:51:08;;;;;;;38.27;19.67;;;6.50;86.80;;;;;;5027099;28;20495;-64
2023/10/25 06:53:37;;;;;;;34.03;19.33;;;6.50;86.80;;;;;;5025640;28;20041;-64
2023/10/25 06:56:05;;;;;;;44.03;20.90;;;6.50;86.80;;;;;;5027304;28;20049;-64
2023/10/25 06:58:31;;;;;;;38.47;19.63;;;6.50;86.80;;;;;;5026611;28;20053;-63
2023/10/25 07:00:57;;;;;;;36.93;18.93;;;6.50;86.80;;;;;;5026367;28;20052;-64
2023/10/25 07:03:33;;;;;;;33.50;19.43;;;6.50;86.90;;;;;;5026832;28;20041;-64
2023/10/25 07:06:01;;;;;;;34.80;19.17;;;6.50;86.90;;;;;;5026901;28;20041;-63
2023/10/25 07:08:27;;;;;;;29.57;17.50;;;6.50;87.00;;;;;;5026775;28;20077;-63
2023/10/25 07:10:54;;;;;;;37.00;19.03;;;6.60;87.00;;;;;;5029211;28;20049;-63
2023/10/25 07:13:20;;;;;;;32.23;18.23;;;6.60;87.00;;;;;;5028231;28;20061;-64
2023/10/25 07:15:47;;;;;;;30.70;18.90;;;6.60;87.10;;;;;;5028136;28;20144;-64
2023/10/25 07:18:12;;;;;;;39.60;19.73;;;6.70;87.10;;;;;;5028046;28;20073;-63
2023/10/25 07:20:38;;;;;;;35.37;18.47;;;6.70;87.20;;;;;;5027601;28;20103;-63
2023/10/25 07:23:04;;;;;;;32.00;18.70;;;6.80;87.10;;;;;;5024323;28;20485;-63
2023/10/25 07:25:30;;;;;;;33.30;19.03;;;6.80;87.20;;;;;;5026763;28;20056;-64
2023/10/25 07:27:56;;;;;;;31.20;19.67;;;6.80;87.20;;;;;;5026842;28;20128;-64
2023/10/25 07:30:22;;;;;;;79.23;25.17;;;6.90;87.20;;;;;;5026015;28;20124;-64
2023/10/25 07:32:48;;;;;;;30.47;19.30;;;6.90;87.10;;;;;;5026842;28;20038;-64
2023/10/25 07:35:13;;;;;;;30.50;18.03;;;6.90;87.10;;;;;;5025250;28;20071;-63
2023/10/25 07:37:39;;;;;;;32.20;18.00;;;6.90;87.10;;;;;;5027497;28;20042;-63
2023/10/25 07:40:06;;;;;;;29.40;18.20;;;6.90;87.10;;;;;;5027334;28;20121;-64
2023/10/25 07:42:32;;;;;;;33.47;17.53;;;7.00;87.10;;;;;;5027089;28;20508;-64
2023/10/25 07:44:58;;;;;;;33.07;19.00;;;7.00;87.10;;;;;;5025421;28;20049;-63
2023/10/25 07:47:24;;;;;;;32.57;18.00;;;7.00;87.10;;;;;;5025247;28;20056;-64
2023/10/25 07:49:50;;;;;;;30.43;18.03;;;7.00;87.10;;;;;;5025703;28;20045;-64
2023/10/25 07:52:16;;;;;;;30.40;18.20;;;7.10;87.10;;;;;;5022472;28;20081;-63
2023/10/25 07:54:42;;;;;;;31.53;17.40;;;7.10;87.00;;;;;;5024323;28;20413;-63
2023/10/25 07:57:08;;;;;;;30.73;16.57;;;7.10;86.90;;;;;;5024016;28;20049;-64
2023/10/25 07:59:33;;;;;;;29.33;17.60;;;7.10;86.90;;;;;;5027548;28;20073;-64
2023/10/25 08:01:59;;;;;;;28.97;17.27;;;7.20;86.90;;;;;;5027811;28;20042;-64
2023/10/25 08:04:25;;;;;;;30.57;18.07;;;7.20;86.90;;;;;;5031015;28;20508;-64
2023/10/25 08:06:52;;;;;;;33.50;18.83;;;7.20;87.00;;;;;;5028455;28;20064;-64
2023/10/25 08:09:18;;;;;;;30.57;17.47;;;7.20;86.90;;;;;;5029854;28;20479;-64
2023/10/25 08:11:44;;;;;;;26.60;17.53;;;7.20;86.90;;;;;;5031116;28;20059;-63
2023/10/25 08:14:10;;;;;;;25.10;16.10;;;7.20;87.00;;;;;;5030661;28;20049;-63
2023/10/25 08:16:39;;;;;;;26.60;15.60;;;7.20;87.00;;;;;;5029472;28;20145;-64
2023/10/25 08:19:09;;;;;;;31.20;16.37;;;7.30;87.00;;;;;;5030611;28;20061;-63
2023/10/25 08:21:38;;;;;;;22.53;15.40;;;7.30;87.00;;;;;;5026816;28;20041;-63
2023/10/25 08:24:07;;;;;;;26.73;16.10;;;7.40;87.00;;;;;;5031055;28;20084;-63
2023/10/25 08:26:39;;;;;;;25.10;15.87;;;7.40;87.10;;;;;;5027543;28;20412;-64
2023/10/25 08:29:06;;;;;;;26.53;14.80;;;7.50;87.00;;;;;;5026069;28;20042;-64
2023/10/25 08:31:32;;;;;;;24.67;15.47;;;7.50;87.00;;;;;;5030341;28;20084;-64
2023/10/25 08:33:59;;;;;;;24.57;15.13;;;7.50;87.00;;;;;;5030087;28;20132;-64
2023/10/25 08:36:25;;;;;;;27.93;16.00;;;7.60;87.00;;;;;;5029082;28;20061;-63
2023/10/25 08:38:51;;;;;;;23.37;14.97;;;7.60;87.00;;;;;;5030177;28;20049;-64
2023/10/25 08:41:19;;;;;;;26.40;15.17;;;7.70;87.00;;;;;;5027021;28;20080;-63
2023/10/25 08:43:46;;;;;;;21.33;14.70;;;7.70;87.00;;;;;;5030337;28;20049;-64
2023/10/25 08:46:14;;;;;;;26.63;15.20;;;7.80;87.00;;;;;;5029749;28;20045;-63
2023/10/25 08:48:40;;;;;;;25.83;15.97;;;7.80;86.90;;;;;;5030427;28;20049;-64
2023/10/25 08:51:08;;;;;;;25.63;15.03;;;7.80;86.80;;;;;;5029412;28;20071;-63
2023/10/25 08:53:35;;;;;;;26.43;15.30;;;7.80;86.70;;;;;;5030087;28;20255;-64
2023/10/25 08:56:01;;;;;;;25.43;15.20;;;7.80;86.60;;;;;;5029172;28;20053;-64
2023/10/25 08:58:26;;;;;;;24.13;14.30;;;7.90;86.60;;;;;;5030561;28;20058;-64
2023/10/25 09:00:55;;;;;;;24.93;18.03;;;8.00;86.60;;;;;;5028996;28;20453;-64
2023/10/25 09:03:32;;;;;;;21.47;14.90;;;8.00;86.60;;;;;;5026843;28;20125;-64
2023/10/25 09:05:59;;;;;;;28.63;14.70;;;8.00;86.60;;;;;;5026906;28;20140;-64
2023/10/25 09:08:25;;;;;;;22.20;14.03;;;8.00;86.50;;;;;;5025026;28;20478;-64
2023/10/25 09:11:02;;;;;;;21.13;14.27;;;8.10;86.50;;;;;;5029232;28;20089;-64
2023/10/25 09:13:37;;;;;;;23.40;13.77;;;8.10;86.40;;;;;;5029122;28;20053;-64
2023/10/25 09:16:03;;;;;;;16.63;13.47;;;8.20;86.40;;;;;;5029933;28;20038;-64
2023/10/25 09:18:30;;;;;;;20.83;13.37;;;8.20;86.30;;;;;;5027634;28;20056;-64
2023/10/25 09:20:56;;;;;;;24.83;14.00;;;8.20;86.50;;;;;;5027481;28;20091;-64
2023/10/25 09:23:22;;;;;;;26.20;14.43;;;8.30;86.50;;;;;;5027720;28;20080;-64
2023/10/25 09:25:49;;;;;;;25.57;13.90;;;8.30;86.50;;;;;;5026591;28;20080;-64
2023/10/25 09:28:27;;;;;;;23.60;15.50;;;8.40;86.50;;;;;;5015179;28;20076;-63
2023/10/25 09:30:56;;;;;;;17.33;12.87;;;8.50;86.60;;;;;;5016328;28;20053;-64
2023/10/25 09:33:22;;;;;;;20.97;12.73;;;8.50;86.50;;;;;;5016537;28;20088;-64
2023/10/25 09:35:49;;;;;;;20.13;13.00;;;8.60;86.50;;;;;;5015311;28;20060;-64
2023/10/25 09:38:15;;;;;;;19.20;12.57;;;8.60;86.30;;;;;;5016609;28;20256;-63
2023/10/25 09:40:43;;;;;;;20.07;12.67;;;8.60;86.30;;;;;;5015756;28;20492;-63
2023/10/25 09:43:15;;;;;;;23.17;12.40;;;8.70;86.30;;;;;;5016838;28;20489;-63
2023/10/25 09:45:42;;;;;;;19.87;12.70;;;8.80;86.30;;;;;;5015408;28;20057;-64
2023/10/25 09:48:11;;;;;;;21.07;11.60;;;8.80;86.20;;;;;;5013850;28;20692;-64
2023/10/25 09:50:41;;;;;;;16.57;11.13;;;8.90;86.20;;;;;;5017077;28;20131;-64
2023/10/25 09:53:31;;;;;;;17.73;10.90;;;8.90;85.90;;;;;;5016558;28;20120;-64
2023/10/25 09:56:05;;;;;;;18.57;11.37;;;8.90;85.90;;;;;;5015747;28;20061;-64
2023/10/25 09:58:35;;;;;;;21.10;12.33;;;9.00;85.90;;;;;;5016576;28;20046;-64
2023/10/25 10:01:03;;;;;;;24.00;10.95;;;9.00;85.90;;;;;;5016775;28;20061;-64
2023/10/25 10:04:33;;;;;;;15.60;10.67;;;9.00;85.70;;;;;;5016659;28;20087;-64
2023/10/25 10:07:17;;;;;;;17.13;11.30;;;9.10;85.60;;;;;;4993137;28;20435;-64
2023/10/25 10:09:52;;;;;;;21.13;11.80;;;9.20;85.70;;;;;;5012110;28;20471;-64
2023/10/25 10:12:19;;;;;;;17.60;11.27;;;9.20;85.90;;;;;;5016558;28;20650;-64
2023/10/25 10:14:44;;;;;;;18.67;11.43;;;9.20;85.70;;;;;;5014176;28;20061;-64
2023/10/25 10:17:16;;;;;;;20.73;12.67;;;9.40;85.80;;;;;;5013930;28;20052;-64
2023/10/25 10:19:46;;;;;;;16.73;10.97;;;9.40;85.80;;;;;;5013511;28;20062;-64
2023/10/25 10:22:14;;;;;;;14.45;10.30;;;9.40;85.70;;;;;;5014376;28;20472;-64
2023/10/25 10:24:50;;;;;;;17.43;10.47;;;9.40;85.70;;;;;;5013936;28;20455;-64
2023/10/25 10:27:40;;;;;;;16.10;9.50;;;9.50;85.60;;;;;;5015821;28;20633;-64
2023/10/25 10:30:29;;;;;;;19.57;11.10;;;9.50;85.60;;;;;;5014970;28;20530;-64
2023/10/25 10:32:56;;;;;;;16.53;10.37;;;9.60;85.50;;;;;;5015524;28;20088;-64
2023/10/25 10:35:22;;;;;;;18.33;10.67;;;9.70;85.50;;;;;;5002306;28;20107;-64
2023/10/25 10:37:57;;;;;;;20.13;10.33;;;9.80;85.70;;;;;;5007052;28;20057;-64
2023/10/25 10:40:23;;;;;;;18.43;10.00;;;9.80;85.50;;;;;;5014437;28;20531;-64
2023/10/25 10:42:49;;;;;;;19.00;10.40;;;9.90;85.40;;;;;;5015804;28;20131;-64
2023/10/25 10:45:19;;;;;;;14.47;10.47;;;10.00;85.70;;;;;;5015470;28;20045;-64
2023/10/25 10:48:04;;;;;;;17.27;9.80;;;10.00;85.50;;;;;;5015132;28;20092;-64
2023/10/25 10:50:29;;;;;;;17.63;9.77;;;10.00;85.20;;;;;;5015452;28;20440;-64
2023/10/25 10:52:55;;;;;;;16.90;9.67;;;10.10;85.10;;;;;;5015970;28;20052;-64
2023/10/25 10:55:23;;;;;;;14.37;9.20;;;10.10;85.20;;;;;;5015202;28;20050;-64
2023/10/25 10:57:49;;;;;;;16.40;9.63;;;10.20;85.20;;;;;;5014383;28;21331;-64
2023/10/25 11:00:16;;;;;;;13.97;10.10;;;10.20;85.30;;;;;;5015334;28;20136;-64
2023/10/25 11:02:46;;;;;;;16.70;9.93;;;10.30;85.30;;;;;;5012854;28;20155;-64
2023/10/25 11:05:15;;;;;;;16.80;10.03;;;10.30;85.30;;;;;;5014755;28;20774;-64
2023/10/25 11:07:42;;;;;;;19.33;9.13;;;10.30;85.30;;;;;;5015686;28;20068;-64
2023/10/25 11:10:08;;;;;;;13.80;8.40;;;10.40;85.10;;;;;;5014967;28;20079;-64
2023/10/25 11:12:34;;;;;;;13.97;8.53;;;10.40;85.00;;;;;;5016307;28;20045;-63
2023/10/25 11:15:07;;;;;;;14.67;9.10;;;10.50;84.90;;;;;;5016948;28;20068;-64
2023/10/25 11:17:33;;;;;;;13.67;8.43;;;10.50;84.90;;;;;;5017426;28;20132;-64
2023/10/25 11:19:59;;;;;;;14.23;7.82;;;10.50;84.80;;;;;;5015551;28;20060;-64
2023/10/25 11:22:25;;;;;;;15.05;9.05;;;10.60;85.00;;;;;;5014207;28;20041;-64
2023/10/25 11:24:52;;;;;;;12.50;8.30;;;10.60;85.00;;;;;;5015132;28;20581;-64
2023/10/25 11:27:18;;;;;;;15.93;8.50;;;10.70;85.00;;;;;;5016965;28;20041;-64
2023/10/25 11:29:45;;;;;;;15.70;8.30;;;10.70;85.10;;;;;;5014250;28;20046;-64
2023/10/25 11:32:12;;;;;;;14.82;8.05;;;10.80;84.80;;;;;;5016029;28;20053;-64
2023/10/25 11:34:41;;;;;;;15.60;8.30;;;10.80;84.50;;;;;;5014563;28;20714;-64
2023/10/25 11:37:08;;;;;;;14.95;7.93;;;10.80;84.60;;;;;;5016039;28;20136;-64
2023/10/25 11:40:01;;;;;;;12.07;7.75;;;10.90;84.70;;;;;;5016381;28;20054;-64
2023/10/25 11:42:30;;;;;;;16.63;7.90;;;10.90;84.70;;;;;;5017048;28;20049;-64
2023/10/25 11:45:03;;;;;;;17.08;11.13;;;10.90;84.60;;;;;;5014839;28;20985;-64
2023/10/25 11:47:31;;;;;;;18.38;8.02;;;11.00;84.60;;;;;;5016763;28;20140;-64
2023/10/25 11:49:59;;;;;;;16.92;7.43;;;11.00;84.50;;;;;;5015990;28;20084;-64
2023/10/25 11:52:27;;;;;;;13.48;8.27;;;11.00;84.40;;;;;;5016243;28;20063;-64
2023/10/25 11:54:56;;;;;;;17.73;8.98;;;11.00;84.50;;;;;;5015410;28;20057;-64
2023/10/25 11:57:28;;;;;;;19.80;9.10;;;11.10;84.50;;;;;;5015886;28;20144;-64
2023/10/25 11:59:54;;;;;;;19.27;9.68;;;11.10;84.50;;;;;;5015964;28;20053;-64
2023/10/25 12:02:22;;;;;;;17.15;8.73;;;11.10;84.40;;;;;;5016549;28;20084;-64
2023/10/25 12:04:48;;;;;;;20.15;9.77;;;11.10;84.30;;;;;;5014942;28;20049;-64
2023/10/25 12:07:14;;;;;;;18.48;10.13;;;11.10;84.20;;;;;;5016491;28;20531;-64
2023/10/25 12:09:42;;;;;;;14.57;10.40;;;11.20;84.20;;;;;;5015822;28;20752;-64
2023/10/25 12:12:09;;;;;;;19.48;10.00;;;11.30;84.30;;;;;;5016659;28;20087;-64
2023/10/25 12:14:34;;;;;;;20.80;9.85;;;11.30;84.40;;;;;;5014196;28;20979;-64
2023/10/25 12:17:00;;;;;;;20.00;10.35;;;11.30;84.30;;;;;;5016640;28;20069;-64
2023/10/25 12:19:26;;;;;;;17.13;9.52;;;11.40;84.10;;;;;;5015020;28;20050;-64
2023/10/25 12:21:55;;;;;;;14.85;9.48;;;11.40;84.00;;;;;;5015675;28;20666;-64
2023/10/25 12:24:22;;;;;;;18.83;9.80;;;11.40;84.00;;;;;;5015650;28;20140;-64
2023/10/25 12:26:48;;;;;;;16.65;10.48;;;11.40;84.10;;;;;;5015338;28;20459;-64
2023/10/25 12:29:14;;;;;;;13.27;9.13;;;11.40;84.10;;;;;;5012712;28;20084;-64
2023/10/25 12:31:39;;;;;;;13.57;9.13;;;11.40;84.00;;;;;;5015253;28;20061;-64
2023/10/25 12:34:05;;;;;;;15.80;8.75;;;11.40;83.80;;;;;;5012876;28;20067;-64
2023/10/25 12:36:31;;;;;;;17.27;8.52;;;11.40;83.80;;;;;;5013221;28;20260;-64
2023/10/25 12:38:56;;;;;;;14.63;8.73;;;11.30;83.80;;;;;;5012425;28;20050;-64